Sacramento, CA (94277)

10:53 PM PDT on September 03, 2015 (GMT -0700)
APRSWXNET | | Change Station
CLOSE
Current Station
Personal Weather Station
Location: Sacramento, CA
Elevation: 18 ft
Nearby Weather Stations

Elev 18 ft 38.57 °N, 121.48 °W | Updated 28 minutes ago

Partly Cloudy
Partly Cloudy
65 °F
Feels Like 65 °F
N
0
Wind Variable Wind from ESE
Gusts 0.0 mph

Today
High -- | Low -- °F
--% Chance of Precip.
Yesterday
High -- | Low -- °F
Precip. -- in
6:36 AM 7:33 PM
Waning Gibbous, 63% visible
Pressure 29.79 in
Visibility 10.0 miles
Clouds Clear
Dew Point 52 °F
Humidity 62%
Rainfall in
Snow Depth Not available.
UV 0 out of 12
Pollen 9.00 out of 12
Air Quality Not available.
Flu Activity Not available.
METAR KSAC 040453Z AUTO 19005KT 10SM CLR 18/10 A2979 RMK AO2 SLP086 T01830100
Pressure 29.79 in
Visibility 10.0 miles
Clouds Clear
Dew Point 52 °F
Humidity 62%
Rainfall in
Snow Depth Not available.
UV 0 out of 12
Pollen 9.00 out of 12
Air Quality Not available.
Flu Activity Not available.
METAR KSAC 040453Z AUTO 19005KT 10SM CLR 18/10 A2979 RMK AO2 SLP086 T01830100

10-Day Weather Forecast

×

Almanac

Astronomy

Sep. 03, 2015 Rise Set
Actual Time
Civil Twilight
Nautical Twilight
Astronomical Twilight
Moon
Length of Visible Light
Length of Day
Tomorrow will be .
, % of the Moon is Illuminated

Today's Extremes

State Highs State Lows

Community

WunderPhotos

Upload Photos

1,852,129 photos uploaded!

WunderBlogs® & News

Nearby

Air Quality

  Air Quality AQ Index Pollutant
Not available.

Snow Depth

Station Depth Elevation

Earthquake Activity

City Distance Mag. Time & Date
Minimum magnitude displayed is 2.5.

Coastal Water Temperatures

Place Temperature

Stations

Nearby Weather Stations

Station Location Temp. Windchill Dew Point Humidity Wind Precip. Elev Updated Type